Terminal Aerodrome Forecast
Issued by NWS Jackson, MS

Home | Current Version | Previous Version | Text Only | Print | Product List | Glossary On
Versions: 1 2 3 4 5 6 7 8 9 10 11 12 13 14 15 16 17 18 19 20 21 22
278
FTUS44 KJAN 221921 AAA
TAFMEI
TAF AMD
KMEI 221921Z 2219/2318 24005KT P6SM VCTS SCT040CB BKN100
     FM230000 00000KT P6SM FEW100 SCT250
     FM231000 02001KT 6SM BR OVC003
     FM231400 01002KT P6SM OVC015
     FM231500 01003KT P6SM SCT250=

USA.gov is the U.S. government's official web portal to all federal, state and local government web resources and services.